Buchanan #12 — WDC2499 — position and weather

sailwx.info

Track history (hours):
 
Tides and Currents Weather Stations Pressure Air Temp Water Temp Dewpoint Dewpoint Depression Visibility Wind Speed Wind Dir Waves Ship Positions

Buchanan #12

Owner: Buchanan Marine LP, New Haven, CT. More information available from US FCC via Universal Licensing System and Coast Guard Vessel Documentation Center.

Last reported at 2018-Jul-22 00:56 UTC. Time now 2018-Jul-22 01:14 UTC.
Position N 40°39' W 074°07'.

Length 27 m; draft 3 m.

Type: Tug. MMSI: 366993970.

Date/timePositionNaut miles runAvg speedWind from/ knotsBaromVisibWave heightAir tempDewpointWater temp
2018-Jul-22 00:56N 40°39' W 074°07'0 0.0
2018-Jul-22 00:30N 40°39' W 074°07'0 0.0
2018-Jul-22 00:00N 40°39' W 074°07'0 0.0
2018-Jul-21 23:29N 40°39' W 074°07'0 0.0
2018-Jul-21 23:00N 40°39' W 074°07'0 0.0
2018-Jul-21 22:30N 40°39' W 074°07'0 0.0
2018-Jul-21 22:00N 40°39' W 074°07'0 0.1
2018-Jul-21 21:30N 40°39' W 074°07'3 6.1
2018-Jul-21 21:00N 40°40' W 074°03'0 0.0
2018-Jul-21 20:30N 40°40' W 074°03'0 0.0
2018-Jul-21 20:00N 40°40' W 074°03'0 0.0
2018-Jul-21 19:30N 40°40' W 074°03'0 0.0
2018-Jul-21 19:00N 40°40' W 074°03'0 0.0
2018-Jul-21 18:30N 40°40' W 074°03'0 0.1
2018-Jul-21 18:00N 40°40' W 074°03'0 0.0
2018-Jul-21 17:30N 40°40' W 074°03'0 0.0
2018-Jul-21 17:00N 40°40' W 074°03'0 0.0
2018-Jul-21 16:30N 40°40' W 074°03'0 0.1
2018-Jul-21 16:00N 40°40' W 074°03'2 4.7
2018-Jul-21 15:30N 40°42' W 074°02'5 8.5
2018-Jul-21 14:58N 40°47' W 074°00'6 0.8
2018-Jul-21 07:45N 40°52' W 073°56'4 7.5
2018-Jul-21 07:14N 40°49' W 073°58'2 7.4
2018-Jul-21 07:00N 40°47' W 073°60'4 7.0
2018-Jul-21 06:30N 40°44' W 074°01'3 6.8
2018-Jul-21 06:00N 40°41' W 074°02'1 1.3
2018-Jul-21 05:30N 40°40' W 074°03'1 1.2
2018-Jul-21 05:00N 40°40' W 074°03'0 0.5
2018-Jul-21 04:30N 40°40' W 074°03'2 4.9
2018-Jul-21 04:00N 40°42' W 074°02'3 5.5
2018-Jul-21 03:30N 40°45' W 074°01'3 5.5
2018-Jul-21 03:00N 40°47' W 073°60'48 3.1
2018-Jul-20 11:41N 41°35' W 073°57'1 6.2
2018-Jul-20 11:30N 41°34' W 073°58'26 5.7
2018-Jul-20 07:00N 41°08' W 073°53'3 5.9
2018-Jul-20 06:31N 41°05' W 073°53'13 5.8
2018-Jul-20 04:17N 40°53' W 073°56'1 5.3
2018-Jul-20 04:00N 40°52' W 073°57'3 4.6
2018-Jul-20 03:28N 40°49' W 073°58'2 4.1
2018-Jul-20 03:00N 40°47' W 073°59'2 3.7
2018-Jul-20 02:30N 40°46' W 074°00'2 3.6
2018-Jul-20 02:00N 40°44' W 074°01'2 3.9
2018-Jul-20 01:30N 40°42' W 074°02'2 4.2
2018-Jul-20 01:00N 40°40' W 074°03'1 1.2
2018-Jul-20 00:30N 40°40' W 074°03'0 0.0
2018-Jul-20 00:00N 40°40' W 074°03'0 0.1
2018-Jul-19 23:30N 40°40' W 074°03'2 3.7
2018-Jul-19 23:00N 40°40' W 074°01'2 3.2
2018-Jul-19 22:30N 40°40' W 074°03'0 0.2
2018-Jul-19 22:00N 40°40' W 074°03'4 7.1
2018-Jul-19 21:30N 40°42' W 073°60'4 0.7
2018-Jul-19 16:22N 40°46' W 073°57'2 6.3
2018-Jul-19 16:00N 40°44' W 073°58'3 6.0
2018-Jul-19 15:30N 40°41' W 074°01'2 4.7
2018-Jul-19 15:00N 40°40' W 074°03'0 0.2
2018-Jul-19 14:00N 40°40' W 074°03'3 5.8
2018-Jul-19 13:30N 40°42' W 074°02'4 7.2
2018-Jul-19 12:59N 40°46' W 074°01'6 0.3
2018-Jul-18 16:19N 40°51' W 073°57'2 7.5
2018-Jul-18 16:01N 40°49' W 073°58'4 7.0
2018-Jul-18 15:30N 40°46' W 074°01'3 6.5
2018-Jul-18 15:01N 40°43' W 074°02'3 6.1
2018-Jul-18 14:30N 40°40' W 074°03'1 0.9
2018-Jul-18 13:31N 40°41' W 074°03'4 7.2
2018-Jul-18 13:00N 40°44' W 074°01'8 0.4
2018-Jul-17 17:13N 40°52' W 073°57'4 9.2
2018-Jul-17 16:49N 40°48' W 073°59'3 9.0
2018-Jul-17 16:30N 40°46' W 074°01'4 8.2
2018-Jul-17 16:01N 40°42' W 074°02'2 4.7
2018-Jul-17 15:30N 40°40' W 074°03'0 0.1
2018-Jul-17 15:00N 40°40' W 074°03'0 0.2
2018-Jul-17 14:30N 40°40' W 074°03'2 3.7
2018-Jul-17 14:00N 40°42' W 074°02'2 4.6
2018-Jul-17 13:31N 40°44' W 074°01'9 0.4
2018-Jul-16 14:38N 40°52' W 073°57'4 5.9
2018-Jul-16 13:58N 40°48' W 073°59'2 5.2
2018-Jul-16 13:30N 40°46' W 074°00'2 4.6
2018-Jul-16 13:01N 40°44' W 074°01'2 4.4
2018-Jul-16 12:31N 40°42' W 074°02'2 4.5
2018-Jul-16 12:01N 40°40' W 074°03'0 0.1
2018-Jul-16 11:30N 40°40' W 074°03'0 0.0
2018-Jul-16 11:00N 40°40' W 074°03'1 1.3
2018-Jul-16 10:31N 40°40' W 074°03'1 2.4
2018-Jul-16 10:01N 40°40' W 074°01'0 0.0
2018-Jul-16 09:31N 40°40' W 074°01'0 0.0
2018-Jul-16 09:01N 40°40' W 074°01'0 0.0
2018-Jul-16 08:31N 40°40' W 074°01'0 0.0
2018-Jul-16 08:00N 40°40' W 074°01'1 1.3
2018-Jul-16 07:30N 40°40' W 074°02'1 2.8
2018-Jul-16 07:01N 40°40' W 074°03'4 7.5
2018-Jul-16 06:30N 40°42' W 073°60'4 1.2
2018-Jul-16 03:19N 40°46' W 073°57'2 7.4
2018-Jul-16 03:00N 40°44' W 073°58'4 7.2
2018-Jul-16 02:31N 40°41' W 074°01'2 3.7
2018-Jul-16 02:01N 40°40' W 074°03'0 0.0
2018-Jul-16 01:30N 40°40' W 074°03'0 0.0
2018-Jul-16 01:00N 40°40' W 074°03'0 0.1
2018-Jul-16 00:30N 40°40' W 074°03'2 3.8
2018-Jul-16 00:01N 40°40' W 074°01'0 0.1
2018-Jul-15 23:30N 40°40' W 074°01'2 3.8
2018-Jul-15 23:00N 40°40' W 074°03'0 0.1
2018-Jul-15 22:30N 40°40' W 074°03'0 0.2
2018-Jul-15 22:00N 40°40' W 074°03'1 2.1
2018-Jul-15 21:30N 40°41' W 074°03'3 5.9
2018-Jul-15 21:00N 40°44' W 074°01'9 0.4
2018-Jul-15 00:18N 40°52' W 073°57'3 6.6
2018-Jul-14 23:55N 40°50' W 073°58'3 6.4
2018-Jul-14 23:30N 40°47' W 073°60'3 5.3
2018-Jul-14 23:01N 40°45' W 074°01'2 4.7
2018-Jul-14 22:31N 40°43' W 074°02'2 4.4
2018-Jul-14 22:01N 40°41' W 074°03'1 1.8
2018-Jul-14 21:30N 40°40' W 074°03'0 0.0
2018-Jul-14 21:00N 40°40' W 074°03'0 0.0
2018-Jul-14 20:31N 40°40' W 074°03'0 0.0
2018-Jul-14 20:00N 40°40' W 074°03'0 0.0
2018-Jul-14 19:30N 40°40' W 074°03'0 0.1
2018-Jul-14 19:01N 40°40' W 074°03'2 4.9
2018-Jul-14 18:30N 40°39' W 074°06'4 7.7
2018-Jul-14 17:57N 40°38' W 074°12'0 0.0
2018-Jul-14 17:27N 40°38' W 074°12'0 0.0
2018-Jul-14 16:59N 40°38' W 074°12'2 3.2
2018-Jul-14 16:30N 40°39' W 074°10'3 6.5
2018-Jul-14 16:00N 40°39' W 074°06'2 3.9
2018-Jul-14 15:31N 40°40' W 074°03'4 7.8
2018-Jul-14 15:00N 40°39' W 074°08'3 2.5
2018-Jul-14 13:55N 40°38' W 074°12'0 0.0
2018-Jul-14 13:29N 40°38' W 074°12'0 0.0
2018-Jul-14 13:00N 40°38' W 074°12'0 0.0
2018-Jul-14 12:31N 40°38' W 074°12'0 0.0
2018-Jul-14 11:59N 40°38' W 074°12'0 0.0
2018-Jul-14 11:30N 40°38' W 074°12'0 0.0
2018-Jul-14 10:59N 40°38' W 074°12'0 0.4
2018-Jul-14 10:30N 40°38' W 074°12'4 7.7
2018-Jul-14 10:01N 40°39' W 074°07'3 5.2
2018-Jul-14 09:31N 40°40' W 074°03'0 0.2
2018-Jul-14 09:00N 40°40' W 074°03'3 5.1
2018-Jul-14 08:30N 40°42' W 074°02'4 8.1
2018-Jul-14 08:00N 40°46' W 074°00'4 8.5
2018-Jul-14 07:30N 40°50' W 073°58'4 7.5
2018-Jul-14 06:59N 40°53' W 073°56'2 0.2
2018-Jul-13 23:33N 40°52' W 073°57'1 8.5
2018-Jul-13 23:26N 40°51' W 073°57'3 7.7
2018-Jul-13 23:00N 40°48' W 073°59'3 6.9
2018-Jul-13 22:30N 40°45' W 074°01'3 6.3
2018-Jul-13 22:01N 40°42' W 074°02'2 3.7
2018-Jul-13 21:30N 40°40' W 074°03'1 1.1
2018-Jul-13 21:00N 40°40' W 074°03'0 0.2
2018-Jul-13 20:30N 40°40' W 074°03'2 3.8
2018-Jul-13 20:01N 40°40' W 074°01'2 3.5
2018-Jul-13 19:30N 40°40' W 074°03'2 3.4
2018-Jul-13 19:00N 40°40' W 074°01'0 0.7
2018-Jul-13 18:30N 40°40' W 074°01'1 3.0
2018-Jul-13 18:01N 40°40' W 074°03'1 1.1
2018-Jul-13 17:31N 40°40' W 074°03'2 3.8
2018-Jul-13 17:00N 40°40' W 074°01'1 1.3
2018-Jul-13 16:31N 40°40' W 074°02'1 3.0
2018-Jul-13 16:01N 40°40' W 074°03'1 1.9
2018-Jul-13 15:30N 40°41' W 074°03'2 3.1
2018-Jul-13 15:00N 40°42' W 074°02'1 1.4
2018-Jul-13 14:31N 40°43' W 074°02'1 1.0
2018-Jul-13 13:30N 40°44' W 074°01'0 0.8
2018-Jul-13 13:00N 40°44' W 074°01'0 0.7
2018-Jul-13 12:31N 40°44' W 074°01'0 0.8
2018-Jul-13 12:00N 40°45' W 074°01'0 0.9
2018-Jul-13 11:31N 40°45' W 074°01'1 1.3
2018-Jul-13 11:00N 40°46' W 074°01'1 1.9
2018-Jul-13 10:30N 40°47' W 074°00'1 2.4
2018-Jul-13 10:00N 40°48' W 073°59'2 3.3
2018-Jul-13 09:30N 40°49' W 073°58'3 5.9
2018-Jul-13 09:00N 40°52' W 073°57'13 6.5
2018-Jul-13 07:04N 41°04' W 073°53'1 5.5
2018-Jul-13 06:54N 41°05' W 073°53'13 0.7
2018-Jul-12 10:36N 40°52' W 073°57'1 5.9
2018-Jul-12 10:25N 40°51' W 073°57'3 5.4
2018-Jul-12 09:56N 40°49' W 073°58'2 5.0
2018-Jul-12 09:30N 40°47' W 073°60'2 4.4
2018-Jul-12 09:01N 40°45' W 074°01'2 4.5
2018-Jul-12 08:30N 40°43' W 074°01'2 4.4
2018-Jul-12 08:00N 40°40' W 074°03'1 1.7
2018-Jul-12 07:30N 40°40' W 074°03'0 0.0
2018-Jul-12 07:00N 40°40' W 074°03'0 0.0
2018-Jul-12 06:30N 40°40' W 074°03'0 0.0
2018-Jul-12 06:01N 40°40' W 074°03'0 0.0
2018-Jul-12 05:31N 40°40' W 074°03'0 0.1
2018-Jul-12 05:00N 40°40' W 074°03'0 0.9
2018-Jul-12 04:31N 40°40' W 074°03'1 1.0
2018-Jul-12 04:01N 40°40' W 074°03'0 0.0
2018-Jul-12 03:30N 40°40' W 074°03'1 2.0
2018-Jul-12 03:00N 40°40' W 074°02'5 9.4
2018-Jul-12 02:31N 40°44' W 073°58'  
Track history (hours):
 
Tides and Currents Weather Stations Pressure Air Temp Water Temp Dewpoint Dewpoint Depression Visibility Wind Speed Wind Dir Waves Ship Positions

Buchanan #12

Owner: Buchanan Marine LP, New Haven, CT. More information available from US FCC via Universal Licensing System and Coast Guard Vessel Documentation Center.

Last reported at 2018-Jul-22 00:56 UTC. Time now 2018-Jul-22 01:14 UTC.
Position N 40°39' W 074°07'.

Length 27 m; draft 3 m.

Type: Tug. MMSI: 366993970.

Date/timePositionNaut miles runAvg speedWind from/ knotsBaromVisibWave heightAir tempDewpointWater temp
2018-Jul-22 00:56N 40°39' W 074°07'0 0.0
2018-Jul-22 00:30N 40°39' W 074°07'0 0.0
2018-Jul-22 00:00N 40°39' W 074°07'0 0.0
2018-Jul-21 23:29N 40°39' W 074°07'0 0.0
2018-Jul-21 23:00N 40°39' W 074°07'0 0.0
2018-Jul-21 22:30N 40°39' W 074°07'0 0.0
2018-Jul-21 22:00N 40°39' W 074°07'0 0.1
2018-Jul-21 21:30N 40°39' W 074°07'3 6.1
2018-Jul-21 21:00N 40°40' W 074°03'0 0.0
2018-Jul-21 20:30N 40°40' W 074°03'0 0.0
2018-Jul-21 20:00N 40°40' W 074°03'0 0.0
2018-Jul-21 19:30N 40°40' W 074°03'0 0.0
2018-Jul-21 19:00N 40°40' W 074°03'0 0.0
2018-Jul-21 18:30N 40°40' W 074°03'0 0.1
2018-Jul-21 18:00N 40°40' W 074°03'0 0.0
2018-Jul-21 17:30N 40°40' W 074°03'0 0.0
2018-Jul-21 17:00N 40°40' W 074°03'0 0.0
2018-Jul-21 16:30N 40°40' W 074°03'0 0.1
2018-Jul-21 16:00N 40°40' W 074°03'2 4.7
2018-Jul-21 15:30N 40°42' W 074°02'5 8.5
2018-Jul-21 14:58N 40°47' W 074°00'6 0.8
2018-Jul-21 07:45N 40°52' W 073°56'4 7.5
2018-Jul-21 07:14N 40°49' W 073°58'2 7.4
2018-Jul-21 07:00N 40°47' W 073°60'4 7.0
2018-Jul-21 06:30N 40°44' W 074°01'3 6.8
2018-Jul-21 06:00N 40°41' W 074°02'1 1.3
2018-Jul-21 05:30N 40°40' W 074°03'1 1.2
2018-Jul-21 05:00N 40°40' W 074°03'0 0.5
2018-Jul-21 04:30N 40°40' W 074°03'2 4.9
2018-Jul-21 04:00N 40°42' W 074°02'3 5.5
2018-Jul-21 03:30N 40°45' W 074°01'3 5.5
2018-Jul-21 03:00N 40°47' W 073°60'48 3.1
2018-Jul-20 11:41N 41°35' W 073°57'1 6.2
2018-Jul-20 11:30N 41°34' W 073°58'26 5.7
2018-Jul-20 07:00N 41°08' W 073°53'3 5.9
2018-Jul-20 06:31N 41°05' W 073°53'13 5.8
2018-Jul-20 04:17N 40°53' W 073°56'1 5.3
2018-Jul-20 04:00N 40°52' W 073°57'3 4.6
2018-Jul-20 03:28N 40°49' W 073°58'2 4.1
2018-Jul-20 03:00N 40°47' W 073°59'2 3.7
2018-Jul-20 02:30N 40°46' W 074°00'2 3.6
2018-Jul-20 02:00N 40°44' W 074°01'2 3.9
2018-Jul-20 01:30N 40°42' W 074°02'2 4.2
2018-Jul-20 01:00N 40°40' W 074°03'1 1.2
2018-Jul-20 00:30N 40°40' W 074°03'0 0.0
2018-Jul-20 00:00N 40°40' W 074°03'0 0.1
2018-Jul-19 23:30N 40°40' W 074°03'2 3.7
2018-Jul-19 23:00N 40°40' W 074°01'2 3.2
2018-Jul-19 22:30N 40°40' W 074°03'0 0.2
2018-Jul-19 22:00N 40°40' W 074°03'4 7.1
2018-Jul-19 21:30N 40°42' W 073°60'4 0.7
2018-Jul-19 16:22N 40°46' W 073°57'2 6.3
2018-Jul-19 16:00N 40°44' W 073°58'3 6.0
2018-Jul-19 15:30N 40°41' W 074°01'2 4.7
2018-Jul-19 15:00N 40°40' W 074°03'0 0.2
2018-Jul-19 14:00N 40°40' W 074°03'3 5.8
2018-Jul-19 13:30N 40°42' W 074°02'4 7.2
2018-Jul-19 12:59N 40°46' W 074°01'6 0.3
2018-Jul-18 16:19N 40°51' W 073°57'2 7.5
2018-Jul-18 16:01N 40°49' W 073°58'4 7.0
2018-Jul-18 15:30N 40°46' W 074°01'3 6.5
2018-Jul-18 15:01N 40°43' W 074°02'3 6.1
2018-Jul-18 14:30N 40°40' W 074°03'1 0.9
2018-Jul-18 13:31N 40°41' W 074°03'4 7.2
2018-Jul-18 13:00N 40°44' W 074°01'8 0.4
2018-Jul-17 17:13N 40°52' W 073°57'4 9.2
2018-Jul-17 16:49N 40°48' W 073°59'3 9.0
2018-Jul-17 16:30N 40°46' W 074°01'4 8.2
2018-Jul-17 16:01N 40°42' W 074°02'2 4.7
2018-Jul-17 15:30N 40°40' W 074°03'0 0.1
2018-Jul-17 15:00N 40°40' W 074°03'0 0.2
2018-Jul-17 14:30N 40°40' W 074°03'2 3.7
2018-Jul-17 14:00N 40°42' W 074°02'2 4.6
2018-Jul-17 13:31N 40°44' W 074°01'9 0.4
2018-Jul-16 14:38N 40°52' W 073°57'4 5.9
2018-Jul-16 13:58N 40°48' W 073°59'2 5.2
2018-Jul-16 13:30N 40°46' W 074°00'2 4.6
2018-Jul-16 13:01N 40°44' W 074°01'2 4.4
2018-Jul-16 12:31N 40°42' W 074°02'2 4.5
2018-Jul-16 12:01N 40°40' W 074°03'0 0.1
2018-Jul-16 11:30N 40°40' W 074°03'0 0.0
2018-Jul-16 11:00N 40°40' W 074°03'1 1.3
2018-Jul-16 10:31N 40°40' W 074°03'1 2.4
2018-Jul-16 10:01N 40°40' W 074°01'0 0.0
2018-Jul-16 09:31N 40°40' W 074°01'0 0.0
2018-Jul-16 09:01N 40°40' W 074°01'0 0.0
2018-Jul-16 08:31N 40°40' W 074°01'0 0.0
2018-Jul-16 08:00N 40°40' W 074°01'1 1.3
2018-Jul-16 07:30N 40°40' W 074°02'1 2.8
2018-Jul-16 07:01N 40°40' W 074°03'4 7.5
2018-Jul-16 06:30N 40°42' W 073°60'4 1.2
2018-Jul-16 03:19N 40°46' W 073°57'2 7.4
2018-Jul-16 03:00N 40°44' W 073°58'4 7.2
2018-Jul-16 02:31N 40°41' W 074°01'2 3.7
2018-Jul-16 02:01N 40°40' W 074°03'0 0.0
2018-Jul-16 01:30N 40°40' W 074°03'0 0.0
2018-Jul-16 01:00N 40°40' W 074°03'0 0.1
2018-Jul-16 00:30N 40°40' W 074°03'2 3.8
2018-Jul-16 00:01N 40°40' W 074°01'0 0.1
2018-Jul-15 23:30N 40°40' W 074°01'2 3.8
2018-Jul-15 23:00N 40°40' W 074°03'0 0.1
2018-Jul-15 22:30N 40°40' W 074°03'0 0.2
2018-Jul-15 22:00N 40°40' W 074°03'1 2.1
2018-Jul-15 21:30N 40°41' W 074°03'3 5.9
2018-Jul-15 21:00N 40°44' W 074°01'9 0.4
2018-Jul-15 00:18N 40°52' W 073°57'3 6.6
2018-Jul-14 23:55N 40°50' W 073°58'3 6.4
2018-Jul-14 23:30N 40°47' W 073°60'3 5.3
2018-Jul-14 23:01N 40°45' W 074°01'2 4.7
2018-Jul-14 22:31N 40°43' W 074°02'2 4.4
2018-Jul-14 22:01N 40°41' W 074°03'1 1.8
2018-Jul-14 21:30N 40°40' W 074°03'0 0.0
2018-Jul-14 21:00N 40°40' W 074°03'0 0.0
2018-Jul-14 20:31N 40°40' W 074°03'0 0.0
2018-Jul-14 20:00N 40°40' W 074°03'0 0.0
2018-Jul-14 19:30N 40°40' W 074°03'0 0.1
2018-Jul-14 19:01N 40°40' W 074°03'2 4.9
2018-Jul-14 18:30N 40°39' W 074°06'4 7.7
2018-Jul-14 17:57N 40°38' W 074°12'0 0.0
2018-Jul-14 17:27N 40°38' W 074°12'0 0.0
2018-Jul-14 16:59N 40°38' W 074°12'2 3.2
2018-Jul-14 16:30N 40°39' W 074°10'3 6.5
2018-Jul-14 16:00N 40°39' W 074°06'2 3.9
2018-Jul-14 15:31N 40°40' W 074°03'4 7.8
2018-Jul-14 15:00N 40°39' W 074°08'3 2.5
2018-Jul-14 13:55N 40°38' W 074°12'0 0.0
2018-Jul-14 13:29N 40°38' W 074°12'0 0.0
2018-Jul-14 13:00N 40°38' W 074°12'0 0.0
2018-Jul-14 12:31N 40°38' W 074°12'0 0.0
2018-Jul-14 11:59N 40°38' W 074°12'0 0.0
2018-Jul-14 11:30N 40°38' W 074°12'0 0.0
2018-Jul-14 10:59N 40°38' W 074°12'0 0.4
2018-Jul-14 10:30N 40°38' W 074°12'4 7.7
2018-Jul-14 10:01N 40°39' W 074°07'3 5.2
2018-Jul-14 09:31N 40°40' W 074°03'0 0.2
2018-Jul-14 09:00N 40°40' W 074°03'3 5.1
2018-Jul-14 08:30N 40°42' W 074°02'4 8.1
2018-Jul-14 08:00N 40°46' W 074°00'4 8.5
2018-Jul-14 07:30N 40°50' W 073°58'4 7.5
2018-Jul-14 06:59N 40°53' W 073°56'2 0.2
2018-Jul-13 23:33N 40°52' W 073°57'1 8.5
2018-Jul-13 23:26N 40°51' W 073°57'3 7.7
2018-Jul-13 23:00N 40°48' W 073°59'3 6.9
2018-Jul-13 22:30N 40°45' W 074°01'3 6.3
2018-Jul-13 22:01N 40°42' W 074°02'2 3.7
2018-Jul-13 21:30N 40°40' W 074°03'1 1.1
2018-Jul-13 21:00N 40°40' W 074°03'0 0.2
2018-Jul-13 20:30N 40°40' W 074°03'2 3.8
2018-Jul-13 20:01N 40°40' W 074°01'2 3.5
2018-Jul-13 19:30N 40°40' W 074°03'2 3.4
2018-Jul-13 19:00N 40°40' W 074°01'0 0.7
2018-Jul-13 18:30N 40°40' W 074°01'1 3.0
2018-Jul-13 18:01N 40°40' W 074°03'1 1.1
2018-Jul-13 17:31N 40°40' W 074°03'2 3.8
2018-Jul-13 17:00N 40°40' W 074°01'1 1.3
2018-Jul-13 16:31N 40°40' W 074°02'1 3.0
2018-Jul-13 16:01N 40°40' W 074°03'1 1.9
2018-Jul-13 15:30N 40°41' W 074°03'2 3.1
2018-Jul-13 15:00N 40°42' W 074°02'1 1.4
2018-Jul-13 14:31N 40°43' W 074°02'1 1.0
2018-Jul-13 13:30N 40°44' W 074°01'0 0.8
2018-Jul-13 13:00N 40°44' W 074°01'0 0.7
2018-Jul-13 12:31N 40°44' W 074°01'0 0.8
2018-Jul-13 12:00N 40°45' W 074°01'0 0.9
2018-Jul-13 11:31N 40°45' W 074°01'1 1.3
2018-Jul-13 11:00N 40°46' W 074°01'1 1.9
2018-Jul-13 10:30N 40°47' W 074°00'1 2.4
2018-Jul-13 10:00N 40°48' W 073°59'2 3.3
2018-Jul-13 09:30N 40°49' W 073°58'3 5.9
2018-Jul-13 09:00N 40°52' W 073°57'13 6.5
2018-Jul-13 07:04N 41°04' W 073°53'1 5.5
2018-Jul-13 06:54N 41°05' W 073°53'13 0.7
2018-Jul-12 10:36N 40°52' W 073°57'1 5.9
2018-Jul-12 10:25N 40°51' W 073°57'3 5.4
2018-Jul-12 09:56N 40°49' W 073°58'2 5.0
2018-Jul-12 09:30N 40°47' W 073°60'2 4.4
2018-Jul-12 09:01N 40°45' W 074°01'2 4.5
2018-Jul-12 08:30N 40°43' W 074°01'2 4.4
2018-Jul-12 08:00N 40°40' W 074°03'1 1.7
2018-Jul-12 07:30N 40°40' W 074°03'0 0.0
2018-Jul-12 07:00N 40°40' W 074°03'0 0.0
2018-Jul-12 06:30N 40°40' W 074°03'0 0.0
2018-Jul-12 06:01N 40°40' W 074°03'0 0.0
2018-Jul-12 05:31N 40°40' W 074°03'0 0.1
2018-Jul-12 05:00N 40°40' W 074°03'0 0.9
2018-Jul-12 04:31N 40°40' W 074°03'1 1.0
2018-Jul-12 04:01N 40°40' W 074°03'0 0.0
2018-Jul-12 03:30N 40°40' W 074°03'1 2.0
2018-Jul-12 03:00N 40°40' W 074°02'5 9.4
2018-Jul-12 02:31N 40°44' W 073°58'  

Dump ship's entire track history